Terminal Aerodrome Forecast
Issued by NWS

Home | Current Version | Previous Version | Text Only | Print | Product List | Glossary On
Versions: 1 2 3 4 5 6 7 8 9 10 11 12 13 14 15 16 17 18 19 20 21 22 23 24 25 26 27 28 29 30 31
000
FTUS45 KBOU 161137
TAFBJC
TAF
KBJC 161137Z 1612/1712 29005KT P6SM FEW140 SCT200
     FM161500 VRB04KT P6SM SCT140 BKN200
     FM161700 33004KT P6SM SCT080 BKN130
     FM161900 02005KT P6SM SCT050 BKN070
     FM170000 30005KT P6SM SCT060 BKN080
     FM170500 30005KT P6SM FEW080 BKN140=

USA.gov is the U.S. government's official web portal to all federal, state and local government web resources and services.